createdAt,value
2019-03-23T00:00:59.141Z,23.40
2019-03-23T00:03:32.860Z,27.05
2019-03-23T00:06:06.707Z,28.35
2019-03-23T00:08:40.444Z,24.05
2019-03-23T00:11:15.143Z,21.75
2019-03-23T00:13:48.771Z,22.02
2019-03-23T00:16:22.380Z,23.77
2019-03-23T00:18:55.959Z,23.85
2019-03-23T00:21:30.593Z,28.48
2019-03-23T00:24:04.364Z,23.65
2019-03-23T00:26:38.022Z,27.08
2019-03-23T00:29:11.683Z,26.75
2019-03-23T00:31:46.240Z,21.60
2019-03-23T00:34:19.868Z,26.25
2019-03-23T00:36:53.579Z,22.85
2019-03-23T00:39:27.245Z,23.20
2019-03-23T00:42:00.932Z,22.98
2019-03-23T00:44:34.706Z,19.90
2019-03-23T00:47:08.323Z,26.33
2019-03-23T00:49:42.842Z,25.12
2019-03-23T00:52:16.581Z,25.27
2019-03-23T00:54:50.154Z,24.12
2019-03-23T00:57:24.581Z,24.85
2019-03-23T00:59:58.333Z,25.73
2019-03-23T01:02:31.884Z,22.15
2019-03-23T01:05:05.627Z,27.77
2019-03-23T01:07:39.403Z,20.42
2019-03-23T01:10:13.847Z,23.33
2019-03-23T01:12:47.509Z,24.95
2019-03-23T01:15:21.131Z,20.83
2019-03-23T01:17:55.432Z,31.58
2019-03-23T01:20:29.777Z,26.17
2019-03-23T01:23:03.545Z,23.65
2019-03-23T01:25:37.979Z,24.92
2019-03-23T01:28:12.289Z,27.67
2019-03-23T01:30:45.831Z,26.52
2019-03-23T01:33:19.403Z,26.95
2019-03-23T01:35:52.995Z,21.62
2019-03-23T01:38:26.695Z,25.27
2019-03-23T01:41:00.288Z,21.77
2019-03-23T01:43:34.072Z,24.92
2019-03-23T01:46:07.620Z,21.62
2019-03-23T01:48:41.316Z,24.70
2019-03-23T01:51:14.973Z,25.02
2019-03-23T01:53:48.652Z,25.50
2019-03-23T01:56:22.318Z,23.42
2019-03-23T01:58:55.946Z,27.98
2019-03-23T02:01:29.800Z,28.33
2019-03-23T02:04:03.325Z,23.67
2019-03-23T02:06:36.905Z,23.55
2019-03-23T02:09:10.587Z,23.75
2019-03-23T02:11:44.386Z,24.83
2019-03-23T02:14:17.985Z,25.40
2019-03-23T02:16:51.567Z,23.23
2019-03-23T02:19:25.348Z,29.92
2019-03-23T02:21:59.027Z,21.90
2019-03-23T02:24:32.678Z,23.85
2019-03-23T02:27:06.471Z,22.77
2019-03-23T02:29:40.022Z,25.15
2019-03-23T02:32:13.677Z,24.48
2019-03-23T02:34:48.224Z,21.08
2019-03-23T02:37:27.883Z,23.05
2019-03-23T02:39:56.291Z,25.40
2019-03-23T02:42:30.126Z,27.92
2019-03-23T02:45:05.516Z,23.52
2019-03-23T02:47:39.315Z,28.77
2019-03-23T02:50:13.232Z,21.67
2019-03-23T02:52:46.896Z,21.15
2019-03-23T02:55:20.758Z,23.65
2019-03-23T02:57:54.571Z,20.95
2019-03-23T03:00:29.125Z,22.80
2019-03-23T03:03:02.683Z,26.23
2019-03-23T03:05:36.500Z,19.62
2019-03-23T03:08:10.001Z,24.90
2019-03-23T03:10:43.782Z,21.58
2019-03-23T03:13:18.254Z,25.27
2019-03-23T03:15:51.999Z,24.23
2019-03-23T03:18:25.829Z,21.60
2019-03-23T03:20:59.610Z,21.20
2019-03-23T03:23:33.162Z,26.08
2019-03-23T03:26:06.926Z,18.60
2019-03-23T03:28:40.571Z,22.50
2019-03-23T03:31:14.183Z,21.92
2019-03-23T03:33:48.630Z,22.98
2019-03-23T03:36:23.123Z,24.30
2019-03-23T03:38:56.832Z,24.65
2019-03-23T03:41:30.679Z,22.13
2019-03-23T03:44:05.093Z,21.20
2019-03-23T03:46:38.713Z,22.80
2019-03-23T03:49:13.340Z,23.67
2019-03-23T03:51:47.111Z,23.25
2019-03-23T03:54:20.736Z,21.83
2019-03-23T03:56:54.322Z,19.83
2019-03-23T03:59:28.708Z,22.15
2019-03-23T04:02:02.466Z,26.50
2019-03-23T04:04:36.023Z,20.92
2019-03-23T04:07:09.632Z,22.55
2019-03-23T04:09:44.144Z,25.20
2019-03-23T04:12:18.594Z,23.90
2019-03-23T04:14:53.194Z,23.15
2019-03-23T04:17:26.708Z,21.62
2019-03-23T04:20:01.030Z,23.23
2019-03-23T04:22:34.732Z,23.10
2019-03-23T04:25:09.127Z,20.52
2019-03-23T04:27:42.677Z,23.15
2019-03-23T04:30:16.260Z,21.75
2019-03-23T04:32:49.950Z,24.23
2019-03-23T04:35:23.711Z,19.85
2019-03-23T04:37:58.136Z,19.05
2019-03-23T04:40:31.933Z,24.58
2019-03-23T04:43:05.584Z,19.25
2019-03-23T04:45:39.174Z,22.67
2019-03-23T04:48:12.792Z,22.55
2019-03-23T04:50:46.650Z,22.73
2019-03-23T04:53:20.297Z,24.40
2019-03-23T04:55:53.804Z,20.25
2019-03-23T04:58:27.483Z,20.88
2019-03-23T05:01:01.090Z,25.15
2019-03-23T05:03:34.698Z,24.35
2019-03-23T05:06:08.383Z,21.60
2019-03-23T05:08:41.933Z,26.52
2019-03-23T05:11:15.474Z,19.37
2019-03-23T05:13:49.177Z,24.10
2019-03-23T05:16:22.896Z,23.52
2019-03-23T05:18:56.440Z,25.92
2019-03-23T05:21:30.170Z,28.20
2019-03-23T05:24:03.729Z,24.85
2019-03-23T05:26:37.278Z,24.20
2019-03-23T05:29:10.922Z,21.20
2019-03-23T05:31:44.458Z,23.15
2019-03-23T05:34:18.207Z,24.25
2019-03-23T05:36:51.788Z,18.73
2019-03-23T05:39:25.540Z,20.73
2019-03-23T05:41:59.081Z,23.05
2019-03-23T05:44:32.613Z,21.45
2019-03-23T05:47:06.383Z,26.42
2019-03-23T05:49:40.032Z,24.40
2019-03-23T05:52:13.624Z,23.52
2019-03-23T05:54:47.323Z,26.87
2019-03-23T05:57:21.086Z,25.88
2019-03-23T05:59:54.628Z,25.67
2019-03-23T06:02:28.196Z,22.77
2019-03-23T06:05:01.846Z,25.83
2019-03-23T06:07:35.391Z,23.08
2019-03-23T06:10:08.928Z,22.33
2019-03-23T06:12:42.502Z,25.50
2019-03-23T06:15:16.046Z,22.52
2019-03-23T06:17:49.658Z,20.65
2019-03-23T06:20:23.315Z,22.08
2019-03-23T06:22:57.682Z,24.67
2019-03-23T06:25:31.412Z,23.67
2019-03-23T06:28:05.003Z,21.25
2019-03-23T06:30:38.551Z,22.80
2019-03-23T06:33:12.158Z,26.62
2019-03-23T06:35:45.762Z,23.92
2019-03-23T06:38:19.442Z,25.23
2019-03-23T06:40:53.254Z,23.42
2019-03-23T06:43:27.019Z,20.12
2019-03-23T06:46:00.759Z,20.90
2019-03-23T06:48:35.306Z,21.58
2019-03-23T06:51:09.108Z,21.67
2019-03-23T06:53:43.580Z,23.92
2019-03-23T06:56:17.107Z,26.30
2019-03-23T06:58:51.047Z,20.52
2019-03-23T07:01:24.810Z,22.33
2019-03-23T07:03:58.481Z,19.85
2019-03-23T07:06:32.053Z,21.30
2019-03-23T07:09:15.527Z,22.58
2019-03-23T07:11:39.219Z,24.12
2019-03-23T07:14:12.985Z,22.33
2019-03-23T07:16:47.523Z,23.67
2019-03-23T07:19:21.252Z,24.23
2019-03-23T07:21:55.022Z,23.40
2019-03-23T07:24:28.782Z,24.42
2019-03-23T07:27:02.880Z,20.27
2019-03-23T07:29:36.641Z,21.45
2019-03-23T07:32:11.123Z,20.90
2019-03-23T07:34:47.774Z,19.95
2019-03-23T07:37:21.479Z,22.15
2019-03-23T07:39:55.351Z,22.37
2019-03-23T07:42:29.038Z,23.98
2019-03-23T07:45:02.746Z,19.65
2019-03-23T07:47:37.137Z,24.50
2019-03-23T07:50:11.600Z,22.58
2019-03-23T07:52:45.281Z,20.48
2019-03-23T07:55:19.680Z,24.60
2019-03-23T07:57:53.271Z,23.85
2019-03-23T08:00:26.875Z,25.45
2019-03-23T08:03:00.607Z,21.60
2019-03-23T08:05:34.235Z,23.52
2019-03-23T08:08:07.976Z,18.77
2019-03-23T08:10:41.582Z,21.90
2019-03-23T08:13:15.322Z,23.17
2019-03-23T08:15:49.173Z,19.85
2019-03-23T08:18:22.785Z,22.05
2019-03-23T08:20:56.559Z,22.80
2019-03-23T08:23:30.141Z,24.17
2019-03-23T08:26:04.565Z,21.25
2019-03-23T08:28:38.118Z,20.60
2019-03-23T08:31:11.789Z,17.55
2019-03-23T08:33:45.516Z,20.80
2019-03-23T08:36:19.419Z,18.10
2019-03-23T08:38:53.141Z,19.02
2019-03-23T08:41:26.752Z,17.67
2019-03-23T08:44:00.899Z,20.08
2019-03-23T08:46:35.478Z,19.02
2019-03-23T08:49:09.304Z,18.65
2019-03-23T08:51:43.857Z,21.20
2019-03-23T08:54:17.611Z,18.93
2019-03-23T08:56:51.427Z,23.87
2019-03-23T08:59:24.951Z,18.97
2019-03-23T09:01:58.563Z,18.60
2019-03-23T09:04:32.187Z,19.60
2019-03-23T09:07:05.891Z,20.20
2019-03-23T09:09:39.541Z,19.00
2019-03-23T09:12:13.190Z,20.27
2019-03-23T09:14:46.964Z,20.47
2019-03-23T09:17:20.790Z,18.17
2019-03-23T09:19:54.500Z,18.93
2019-03-23T09:22:28.300Z,24.90
2019-03-23T09:25:01.990Z,18.77
2019-03-23T09:27:35.569Z,19.30
2019-03-23T09:30:10.014Z,18.60
2019-03-23T09:32:43.699Z,23.80
2019-03-23T09:35:17.339Z,21.20
2019-03-23T09:37:51.089Z,20.40
2019-03-23T09:40:24.856Z,19.50
2019-03-23T09:42:58.523Z,20.50
2019-03-23T09:45:32.507Z,20.43
2019-03-23T09:48:06.298Z,19.17
2019-03-23T09:50:40.713Z,23.97
2019-03-23T09:53:15.982Z,20.30
2019-03-23T09:55:49.724Z,20.00
2019-03-23T09:58:23.535Z,22.73
2019-03-23T10:00:58.205Z,23.83
2019-03-23T10:03:32.682Z,22.77
2019-03-23T10:06:07.019Z,22.00
2019-03-23T10:08:40.592Z,23.40
2019-03-23T10:11:14.234Z,26.27
2019-03-23T10:13:48.730Z,24.63
2019-03-23T10:16:22.426Z,28.17
2019-03-23T10:18:56.194Z,27.73
2019-03-23T10:21:30.003Z,25.83
2019-03-23T10:24:03.704Z,26.97
2019-03-23T10:26:37.652Z,32.50
2019-03-23T10:29:11.681Z,24.70
2019-03-23T10:31:45.467Z,29.10
2019-03-23T10:34:19.133Z,31.80
2019-03-23T10:36:52.955Z,25.40
2019-03-23T10:39:26.640Z,25.63
2019-03-23T10:42:01.265Z,25.20
2019-03-23T10:44:34.907Z,27.80
2019-03-23T10:47:08.716Z,26.50
2019-03-23T10:49:42.315Z,29.87
2019-03-23T10:52:16.557Z,31.43
2019-03-23T10:54:50.492Z,27.70
2019-03-23T10:57:24.035Z,29.27
2019-03-23T10:59:58.026Z,31.73
2019-03-23T11:02:32.219Z,28.50
2019-03-23T11:05:06.305Z,32.57
2019-03-23T11:07:39.963Z,29.10
2019-03-23T11:10:13.838Z,27.27
2019-03-23T11:12:47.604Z,23.67
2019-03-23T11:15:21.834Z,27.13
2019-03-23T11:17:56.589Z,27.40
2019-03-23T11:20:32.377Z,27.10
2019-03-23T11:23:08.408Z,23.23
2019-03-23T11:25:42.947Z,27.03
2019-03-23T11:28:16.589Z,27.13
2019-03-23T11:30:50.127Z,23.80
2019-03-23T11:33:23.846Z,28.37
2019-03-23T11:35:58.238Z,29.57
2019-03-23T11:38:31.091Z,27.77
2019-03-23T11:41:04.986Z,30.20
2019-03-23T11:43:38.706Z,29.60
2019-03-23T11:46:12.418Z,27.57
2019-03-23T11:48:46.103Z,28.60
2019-03-23T11:51:19.751Z,33.33
2019-03-23T11:53:53.478Z,28.55
2019-03-23T11:56:30.570Z,34.35
2019-03-23T11:59:00.792Z,30.42
2019-03-23T12:01:35.912Z,30.90
2019-03-23T12:04:10.255Z,29.40
2019-03-23T12:06:43.926Z,31.70
2019-03-23T12:09:17.573Z,25.67
2019-03-23T12:11:51.172Z,31.80
2019-03-23T12:14:24.969Z,32.22
2019-03-23T12:16:58.691Z,29.25
2019-03-23T12:19:32.321Z,33.30
2019-03-23T12:22:06.909Z,35.95
2019-03-23T12:24:40.663Z,30.20
2019-03-23T12:27:14.415Z,28.73
2019-03-23T12:29:48.344Z,30.85
2019-03-23T12:32:22.068Z,33.90
2019-03-23T12:34:55.691Z,31.20
2019-03-23T12:37:30.050Z,32.50
2019-03-23T12:40:03.756Z,30.08
2019-03-23T12:42:38.988Z,32.45
2019-03-23T12:45:13.609Z,29.45
2019-03-23T12:47:47.186Z,31.00
2019-03-23T12:50:21.626Z,30.08
2019-03-23T12:52:57.485Z,31.45
2019-03-23T12:55:30.602Z,30.12
2019-03-23T12:58:04.248Z,28.27
2019-03-23T13:00:37.919Z,29.73
2019-03-23T13:03:13.244Z,27.60
2019-03-23T13:05:46.817Z,29.25
2019-03-23T13:08:20.453Z,34.45
2019-03-23T13:10:54.224Z,26.52
2019-03-23T13:13:27.962Z,26.23
2019-03-23T13:16:01.696Z,29.15
2019-03-23T13:18:35.594Z,23.52
2019-03-23T13:21:09.341Z,27.83
2019-03-23T13:23:43.114Z,25.77
2019-03-23T13:26:16.952Z,24.85
2019-03-23T13:28:50.674Z,27.98
2019-03-23T13:31:24.237Z,28.52
2019-03-23T13:33:57.925Z,25.50
2019-03-23T13:36:32.365Z,30.27
2019-03-23T13:39:06.079Z,25.70
2019-03-23T13:41:46.322Z,28.15
2019-03-23T13:44:19.905Z,31.27
2019-03-23T13:46:54.083Z,22.55
2019-03-23T13:49:27.957Z,24.75
2019-03-23T13:52:01.933Z,26.30
2019-03-23T13:54:35.495Z,25.83
2019-03-23T13:57:09.306Z,26.87
2019-03-23T13:59:43.114Z,24.77
2019-03-23T14:02:16.762Z,25.00
2019-03-23T14:04:50.412Z,25.25
2019-03-23T14:07:24.042Z,27.40
2019-03-23T14:09:58.590Z,25.52
2019-03-23T14:12:32.491Z,25.48
2019-03-23T14:15:07.067Z,26.17
2019-03-23T14:17:40.803Z,23.67
2019-03-23T14:20:14.573Z,24.98
2019-03-23T14:22:48.346Z,27.48
2019-03-23T14:25:21.953Z,26.55
2019-03-23T14:27:56.322Z,33.13
2019-03-23T14:30:30.132Z,26.23
2019-03-23T14:33:04.614Z,28.62
2019-03-23T14:35:38.301Z,26.77
2019-03-23T14:38:12.725Z,23.62
2019-03-23T14:40:46.316Z,26.12
2019-03-23T14:43:20.835Z,26.58
2019-03-23T14:45:54.553Z,28.35
2019-03-23T14:48:28.183Z,29.17
2019-03-23T14:51:01.804Z,27.90
2019-03-23T14:53:35.594Z,26.40
2019-03-23T14:56:09.180Z,26.73
2019-03-23T14:58:43.586Z,28.77
2019-03-23T15:01:17.131Z,27.87
2019-03-23T15:03:50.899Z,31.92
2019-03-23T15:06:24.629Z,29.83
2019-03-23T15:08:59.177Z,33.95
2019-03-23T15:11:32.908Z,27.37
2019-03-23T15:14:06.724Z,27.35
2019-03-23T15:16:40.355Z,32.60
2019-03-23T15:19:15.666Z,33.25
2019-03-23T15:21:47.635Z,33.72
2019-03-23T15:24:21.358Z,30.42
2019-03-23T15:26:54.956Z,27.17
2019-03-23T15:29:29.222Z,25.02
2019-03-23T15:32:02.951Z,26.87
2019-03-23T15:34:36.595Z,28.42
2019-03-23T15:37:11.081Z,35.75
2019-03-23T15:39:44.702Z,29.23
2019-03-23T15:42:24.731Z,28.87
2019-03-23T15:44:52.224Z,28.08
2019-03-23T15:47:25.920Z,29.52
2019-03-23T15:49:59.627Z,31.73
2019-03-23T15:52:33.281Z,26.80
2019-03-23T15:55:06.838Z,27.15
2019-03-23T15:57:40.487Z,28.65
2019-03-23T16:00:14.382Z,30.65
2019-03-23T16:02:48.190Z,33.65
2019-03-23T16:05:22.018Z,37.83
2019-03-23T16:07:55.845Z,28.65
2019-03-23T16:10:29.698Z,29.25
2019-03-23T16:13:03.227Z,32.38
2019-03-23T16:15:36.860Z,28.80
2019-03-23T16:18:10.644Z,27.60
2019-03-23T16:20:44.403Z,31.48
2019-03-23T16:23:18.889Z,26.23
2019-03-23T16:25:52.691Z,25.90
2019-03-23T16:28:26.250Z,26.50
2019-03-23T16:31:00.125Z,28.23
2019-03-23T16:33:33.829Z,30.08
2019-03-23T16:36:08.377Z,28.17
2019-03-23T16:38:42.252Z,30.40
2019-03-23T16:41:15.863Z,30.92
2019-03-23T16:43:49.682Z,27.20
2019-03-23T16:46:23.988Z,29.23
2019-03-23T16:48:57.790Z,30.25
2019-03-23T16:51:31.590Z,33.10
2019-03-23T16:54:05.305Z,32.42
2019-03-23T16:56:39.048Z,34.22
2019-03-23T16:59:12.775Z,27.25
2019-03-23T17:01:47.216Z,32.83
2019-03-23T17:04:20.791Z,35.85
2019-03-23T17:06:54.367Z,33.90
2019-03-23T17:09:28.056Z,40.45
2019-03-23T17:12:02.540Z,33.30
2019-03-23T17:14:36.883Z,34.75
2019-03-23T17:17:10.541Z,29.70
2019-03-23T17:19:44.154Z,31.25
2019-03-23T17:22:17.986Z,29.65
2019-03-23T17:24:51.749Z,38.42
2019-03-23T17:27:26.172Z,34.85
2019-03-23T17:29:59.775Z,28.23
2019-03-23T17:32:33.357Z,33.95
2019-03-23T17:35:06.934Z,34.58
2019-03-23T17:37:40.725Z,33.70
2019-03-23T17:40:15.024Z,35.42
2019-03-23T17:42:49.532Z,33.55
2019-03-23T17:45:23.337Z,28.58
2019-03-23T17:47:57.050Z,35.22
2019-03-23T17:50:30.611Z,33.63
2019-03-23T17:53:04.138Z,33.28
2019-03-23T17:55:37.787Z,31.70
2019-03-23T17:58:11.566Z,31.92
2019-03-23T18:00:45.256Z,35.22
2019-03-23T18:03:19.140Z,31.05
2019-03-23T18:05:52.862Z,29.23
2019-03-23T18:08:26.441Z,33.35
2019-03-23T18:11:00.066Z,38.78
2019-03-23T18:13:33.746Z,36.85
2019-03-23T18:16:08.107Z,36.72
2019-03-23T18:18:41.712Z,32.22
2019-03-23T18:21:15.418Z,35.38
2019-03-23T18:23:49.042Z,29.00
2019-03-23T18:26:22.698Z,31.20
2019-03-23T18:28:56.519Z,33.20
2019-03-23T18:31:30.104Z,34.03
2019-03-23T18:34:04.585Z,40.03
2019-03-23T18:36:38.143Z,39.30
2019-03-23T18:39:11.743Z,46.58
2019-03-23T18:41:46.167Z,36.78
2019-03-23T18:44:19.831Z,35.53
2019-03-23T18:46:54.038Z,40.05
2019-03-23T18:49:27.955Z,46.15
2019-03-23T18:52:01.710Z,34.80
2019-03-23T18:54:35.267Z,55.70
2019-03-23T18:57:08.981Z,46.50
2019-03-23T18:59:42.668Z,42.90
2019-03-23T19:02:16.188Z,43.67
2019-03-23T19:04:49.830Z,42.13
2019-03-23T19:07:23.605Z,36.20
2019-03-23T19:09:57.143Z,42.42
2019-03-23T19:12:30.910Z,44.88
2019-03-23T19:15:05.444Z,40.22
2019-03-23T19:17:39.007Z,44.65
2019-03-23T19:20:12.611Z,39.72
2019-03-23T19:22:46.145Z,32.30
2019-03-23T19:25:20.583Z,37.17
2019-03-23T19:27:54.221Z,36.67
2019-03-23T19:30:27.775Z,37.58
2019-03-23T19:33:01.381Z,50.88
2019-03-23T19:35:34.962Z,44.13
2019-03-23T19:38:08.501Z,43.33
2019-03-23T19:40:42.145Z,43.70
2019-03-23T19:43:15.749Z,54.70
2019-03-23T19:45:49.312Z,43.97
2019-03-23T19:48:22.888Z,41.90
2019-03-23T19:50:56.627Z,37.33
2019-03-23T19:53:30.435Z,41.95
2019-03-23T19:56:04.217Z,40.75
2019-03-23T19:58:38.007Z,37.38
2019-03-23T20:01:11.690Z,45.30
2019-03-23T20:03:45.398Z,39.13
2019-03-23T20:06:19.069Z,32.50
2019-03-23T20:08:53.592Z,44.38
2019-03-23T20:11:27.261Z,42.72
2019-03-23T20:14:00.813Z,40.65
2019-03-23T20:16:34.444Z,40.53
2019-03-23T20:19:08.968Z,35.75
2019-03-23T20:21:43.490Z,31.95
2019-03-23T20:24:17.137Z,36.40
2019-03-23T20:26:50.713Z,36.20
2019-03-23T20:29:24.551Z,32.40
2019-03-23T20:31:58.425Z,37.38
2019-03-23T20:34:33.081Z,32.35
2019-03-23T20:37:08.460Z,36.53
2019-03-23T20:39:41.267Z,34.80
2019-03-23T20:42:14.920Z,37.47
2019-03-23T20:44:49.457Z,39.58
2019-03-23T20:47:23.062Z,35.78
2019-03-23T20:49:56.675Z,38.15
2019-03-23T20:52:30.512Z,37.53
2019-03-23T20:55:05.213Z,43.03
2019-03-23T20:57:39.759Z,40.80
2019-03-23T21:00:13.317Z,43.50
2019-03-23T21:02:47.186Z,43.00
2019-03-23T21:05:21.745Z,41.70
2019-03-23T21:07:56.218Z,43.03
2019-03-23T21:10:30.044Z,45.50
2019-03-23T21:13:03.771Z,39.10
2019-03-23T21:15:37.472Z,43.95
2019-03-23T21:18:11.261Z,44.42
2019-03-23T21:20:45.079Z,46.85
2019-03-23T21:23:18.906Z,38.60
2019-03-23T21:25:52.719Z,49.88
2019-03-23T21:28:26.266Z,40.58
2019-03-23T21:31:00.812Z,48.22
2019-03-23T21:33:38.895Z,44.60
2019-03-23T21:36:08.124Z,46.85
2019-03-23T21:38:41.754Z,42.97
2019-03-23T21:41:16.308Z,41.70
2019-03-23T21:43:49.988Z,45.42
2019-03-23T21:46:23.723Z,48.17
2019-03-23T21:48:57.343Z,47.72
2019-03-23T21:51:31.698Z,43.90
2019-03-23T21:54:05.511Z,44.08
2019-03-23T21:56:39.357Z,50.65
2019-03-23T21:59:12.948Z,58.53
2019-03-23T22:01:46.561Z,49.15
2019-03-23T22:04:20.326Z,50.97
2019-03-23T22:06:54.956Z,50.60
2019-03-23T22:09:29.312Z,49.50
2019-03-23T22:12:03.029Z,50.95
2019-03-23T22:14:41.611Z,49.25
2019-03-23T22:17:10.934Z,44.85
2019-03-23T22:19:44.692Z,53.53
2019-03-23T22:22:18.438Z,52.85
2019-03-23T22:24:52.270Z,47.13
2019-03-23T22:27:26.050Z,55.28
2019-03-23T22:29:59.727Z,44.17
2019-03-23T22:32:33.602Z,44.55
2019-03-23T22:35:07.208Z,41.35
2019-03-23T22:37:41.807Z,43.33
2019-03-23T22:40:15.657Z,46.45
2019-03-23T22:42:50.146Z,47.72
2019-03-23T22:45:24.593Z,38.35
2019-03-23T22:47:59.004Z,41.35
2019-03-23T22:50:32.759Z,50.17
2019-03-23T22:53:06.384Z,48.42
2019-03-23T22:55:39.998Z,48.87
2019-03-23T22:58:13.832Z,47.50
2019-03-23T23:00:47.363Z,46.10
2019-03-23T23:03:21.831Z,53.65
2019-03-23T23:05:55.849Z,52.20
2019-03-23T23:08:29.511Z,45.17
2019-03-23T23:11:03.716Z,52.45
2019-03-23T23:13:38.192Z,59.03
2019-03-23T23:16:11.839Z,57.50
2019-03-23T23:18:45.438Z,53.90
2019-03-23T23:21:19.171Z,46.58
2019-03-23T23:23:52.728Z,47.13
2019-03-23T23:26:27.146Z,50.80
2019-03-23T23:29:00.860Z,48.97
2019-03-23T23:31:34.439Z,53.17
2019-03-23T23:34:08.791Z,48.10
2019-03-23T23:36:42.476Z,53.72
2019-03-23T23:39:16.283Z,56.37
2019-03-23T23:41:50.780Z,44.13
2019-03-23T23:44:24.313Z,50.45
2019-03-23T23:46:58.745Z,59.78
2019-03-23T23:49:32.338Z,58.67
2019-03-23T23:52:05.984Z,53.90
2019-03-23T23:54:39.720Z,57.85
2019-03-23T23:57:13.437Z,53.40
2019-03-23T23:59:47.036Z,57.28
